sensor_id;sensor_type;location;lat;lon;timestamp;P1;durP1;ratioP1;P2;durP2;ratioP2
48526;SDS011;34317;51.660;5.824;2024-01-10T00:01:03;6.63;;;2.60;;
48526;SDS011;34317;51.660;5.824;2024-01-10T00:03:30;5.63;;;2.80;;
48526;SDS011;34317;51.660;5.824;2024-01-10T00:05:58;10.73;;;2.90;;
48526;SDS011;34317;51.660;5.824;2024-01-10T00:08:25;6.30;;;2.70;;
48526;SDS011;34317;51.660;5.824;2024-01-10T00:10:53;6.05;;;2.78;;
48526;SDS011;34317;51.660;5.824;2024-01-10T00:13:23;5.93;;;2.63;;
48526;SDS011;34317;51.660;5.824;2024-01-10T00:15:50;5.93;;;2.92;;
48526;SDS011;34317;51.660;5.824;2024-01-10T00:18:17;7.35;;;2.75;;
48526;SDS011;34317;51.660;5.824;2024-01-10T00:20:44;5.57;;;2.88;;
48526;SDS011;34317;51.660;5.824;2024-01-10T00:23:12;5.65;;;2.80;;
48526;SDS011;34317;51.660;5.824;2024-01-10T00:25:39;4.68;;;2.40;;
48526;SDS011;34317;51.660;5.824;2024-01-10T00:28:06;5.80;;;2.95;;
48526;SDS011;34317;51.660;5.824;2024-01-10T00:30:33;6.90;;;2.88;;
48526;SDS011;34317;51.660;5.824;2024-01-10T00:33:00;4.97;;;2.97;;
48526;SDS011;34317;51.660;5.824;2024-01-10T00:35:28;6.05;;;2.70;;
48526;SDS011;34317;51.660;5.824;2024-01-10T00:37:55;4.88;;;2.55;;
48526;SDS011;34317;51.660;5.824;2024-01-10T00:40:22;7.22;;;2.70;;
48526;SDS011;34317;51.660;5.824;2024-01-10T00:42:50;6.88;;;2.95;;
48526;SDS011;34317;51.660;5.824;2024-01-10T00:45:17;5.43;;;2.50;;
48526;SDS011;34317;51.660;5.824;2024-01-10T00:47:44;5.43;;;2.70;;
48526;SDS011;34317;51.660;5.824;2024-01-10T00:50:11;4.85;;;2.47;;
48526;SDS011;34317;51.660;5.824;2024-01-10T00:52:38;8.20;;;2.85;;
48526;SDS011;34317;51.660;5.824;2024-01-10T00:55:06;6.53;;;2.80;;
48526;SDS011;34317;51.660;5.824;2024-01-10T00:57:33;5.70;;;2.83;;
48526;SDS011;34317;51.660;5.824;2024-01-10T01:00:00;8.23;;;2.90;;
48526;SDS011;34317;51.660;5.824;2024-01-10T01:02:27;6.13;;;3.05;;
48526;SDS011;34317;51.660;5.824;2024-01-10T01:04:55;7.00;;;2.63;;
48526;SDS011;34317;51.660;5.824;2024-01-10T01:07:22;6.38;;;2.88;;
48526;SDS011;34317;51.660;5.824;2024-01-10T01:09:49;6.88;;;2.97;;
48526;SDS011;34317;51.660;5.824;2024-01-10T01:12:16;6.28;;;2.72;;
48526;SDS011;34317;51.660;5.824;2024-01-10T01:14:44;6.13;;;3.00;;
48526;SDS011;34317;51.660;5.824;2024-01-10T01:17:11;5.32;;;2.95;;
48526;SDS011;34317;51.660;5.824;2024-01-10T01:19:38;6.60;;;2.60;;
48526;SDS011;34317;51.660;5.824;2024-01-10T01:22:05;5.20;;;2.67;;
48526;SDS011;34317;51.660;5.824;2024-01-10T01:24:32;4.43;;;2.38;;
48526;SDS011;34317;51.660;5.824;2024-01-10T01:26:59;4.13;;;2.63;;
48526;SDS011;34317;51.660;5.824;2024-01-10T01:29:26;5.28;;;2.88;;
48526;SDS011;34317;51.660;5.824;2024-01-10T01:31:55;6.43;;;2.40;;
48526;SDS011;34317;51.660;5.824;2024-01-10T01:34:22;5.53;;;2.50;;
48526;SDS011;34317;51.660;5.824;2024-01-10T01:36:49;5.47;;;2.67;;
48526;SDS011;34317;51.660;5.824;2024-01-10T01:39:18;5.25;;;2.60;;
48526;SDS011;34317;51.660;5.824;2024-01-10T01:41:46;6.28;;;2.83;;
48526;SDS011;34317;51.660;5.824;2024-01-10T01:44:13;6.40;;;2.60;;
48526;SDS011;34317;51.660;5.824;2024-01-10T01:46:40;6.75;;;2.83;;
48526;SDS011;34317;51.660;5.824;2024-01-10T01:49:08;5.20;;;2.67;;
48526;SDS011;34317;51.660;5.824;2024-01-10T01:51:37;5.15;;;2.50;;
48526;SDS011;34317;51.660;5.824;2024-01-10T01:54:07;6.63;;;2.97;;
48526;SDS011;34317;51.660;5.824;2024-01-10T01:56:35;5.90;;;2.80;;
48526;SDS011;34317;51.660;5.824;2024-01-10T01:59:04;7.60;;;2.90;;
48526;SDS011;34317;51.660;5.824;2024-01-10T02:01:31;6.85;;;2.97;;
48526;SDS011;34317;51.660;5.824;2024-01-10T02:04:00;6.53;;;2.88;;
48526;SDS011;34317;51.660;5.824;2024-01-10T02:06:28;6.85;;;3.03;;
48526;SDS011;34317;51.660;5.824;2024-01-10T02:08:57;7.15;;;2.80;;
48526;SDS011;34317;51.660;5.824;2024-01-10T02:11:25;5.38;;;3.00;;
48526;SDS011;34317;51.660;5.824;2024-01-10T02:13:52;8.90;;;2.88;;
48526;SDS011;34317;51.660;5.824;2024-01-10T02:16:23;12.88;;;3.10;;
48526;SDS011;34317;51.660;5.824;2024-01-10T02:18:51;5.50;;;2.78;;
48526;SDS011;34317;51.660;5.824;2024-01-10T02:21:21;7.05;;;3.15;;
48526;SDS011;34317;51.660;5.824;2024-01-10T02:23:49;6.07;;;3.05;;
48526;SDS011;34317;51.660;5.824;2024-01-10T02:26:16;5.50;;;2.70;;
48526;SDS011;34317;51.660;5.824;2024-01-10T02:28:43;4.53;;;2.92;;
48526;SDS011;34317;51.660;5.824;2024-01-10T02:31:11;5.10;;;2.83;;
48526;SDS011;34317;51.660;5.824;2024-01-10T02:33:38;6.47;;;2.60;;
48526;SDS011;34317;51.660;5.824;2024-01-10T02:36:06;7.93;;;3.30;;
48526;SDS011;34317;51.660;5.824;2024-01-10T02:38:33;5.22;;;2.70;;
48526;SDS011;34317;51.660;5.824;2024-01-10T02:41:00;6.03;;;3.00;;
48526;SDS011;34317;51.660;5.824;2024-01-10T02:43:29;6.25;;;3.15;;
48526;SDS011;34317;51.660;5.824;2024-01-10T02:45:57;7.32;;;2.97;;
48526;SDS011;34317;51.660;5.824;2024-01-10T02:48:25;7.20;;;3.00;;
48526;SDS011;34317;51.660;5.824;2024-01-10T02:50:52;6.85;;;2.80;;
48526;SDS011;34317;51.660;5.824;2024-01-10T02:53:21;6.38;;;2.88;;
48526;SDS011;34317;51.660;5.824;2024-01-10T02:55:48;7.63;;;3.40;;
48526;SDS011;34317;51.660;5.824;2024-01-10T02:58:17;5.70;;;2.95;;
48526;SDS011;34317;51.660;5.824;2024-01-10T03:00:44;5.55;;;2.72;;
48526;SDS011;34317;51.660;5.824;2024-01-10T03:03:11;7.30;;;3.08;;
48526;SDS011;34317;51.660;5.824;2024-01-10T03:05:39;6.78;;;2.88;;
48526;SDS011;34317;51.660;5.824;2024-01-10T03:08:06;5.72;;;2.83;;
48526;SDS011;34317;51.660;5.824;2024-01-10T03:10:33;7.22;;;3.20;;
48526;SDS011;34317;51.660;5.824;2024-01-10T03:13:01;11.05;;;3.15;;
48526;SDS011;34317;51.660;5.824;2024-01-10T03:15:28;5.88;;;2.63;;
48526;SDS011;34317;51.660;5.824;2024-01-10T03:17:55;6.53;;;3.13;;
48526;SDS011;34317;51.660;5.824;2024-01-10T03:20:23;6.07;;;3.00;;
48526;SDS011;34317;51.660;5.824;2024-01-10T03:22:50;7.45;;;2.80;;
48526;SDS011;34317;51.660;5.824;2024-01-10T03:25:17;7.18;;;3.25;;
48526;SDS011;34317;51.660;5.824;2024-01-10T03:27:44;10.85;;;3.05;;
48526;SDS011;34317;51.660;5.824;2024-01-10T03:30:11;6.90;;;3.13;;
48526;SDS011;34317;51.660;5.824;2024-01-10T03:32:39;7.47;;;3.10;;
48526;SDS011;34317;51.660;5.824;2024-01-10T03:35:07;8.75;;;2.95;;
48526;SDS011;34317;51.660;5.824;2024-01-10T03:37:35;6.40;;;2.88;;
48526;SDS011;34317;51.660;5.824;2024-01-10T03:40:02;7.53;;;3.10;;
48526;SDS011;34317;51.660;5.824;2024-01-10T03:42:30;5.90;;;2.67;;
48526;SDS011;34317;51.660;5.824;2024-01-10T03:44:57;8.80;;;2.90;;
48526;SDS011;34317;51.660;5.824;2024-01-10T03:47:24;5.07;;;2.60;;
48526;SDS011;34317;51.660;5.824;2024-01-10T03:49:51;9.52;;;3.30;;
48526;SDS011;34317;51.660;5.824;2024-01-10T03:52:19;6.78;;;2.80;;
48526;SDS011;34317;51.660;5.824;2024-01-10T03:54:46;6.15;;;3.20;;
48526;SDS011;34317;51.660;5.824;2024-01-10T03:57:13;6.20;;;3.10;;
48526;SDS011;34317;51.660;5.824;2024-01-10T03:59:41;7.28;;;2.85;;
48526;SDS011;34317;51.660;5.824;2024-01-10T04:02:08;6.13;;;3.05;;
48526;SDS011;34317;51.660;5.824;2024-01-10T04:04:36;6.72;;;2.83;;
48526;SDS011;34317;51.660;5.824;2024-01-10T04:07:05;7.07;;;2.75;;
48526;SDS011;34317;51.660;5.824;2024-01-10T04:09:33;6.65;;;3.20;;
48526;SDS011;34317;51.660;5.824;2024-01-10T04:12:00;6.22;;;2.67;;
48526;SDS011;34317;51.660;5.824;2024-01-10T04:14:28;7.15;;;3.30;;
48526;SDS011;34317;51.660;5.824;2024-01-10T04:16:55;8.05;;;3.13;;
48526;SDS011;34317;51.660;5.824;2024-01-10T04:19:22;9.63;;;3.20;;
48526;SDS011;34317;51.660;5.824;2024-01-10T04:21:49;7.07;;;3.00;;
48526;SDS011;34317;51.660;5.824;2024-01-10T04:24:16;9.60;;;3.17;;
48526;SDS011;34317;51.660;5.824;2024-01-10T04:26:44;8.52;;;3.10;;
48526;SDS011;34317;51.660;5.824;2024-01-10T04:29:11;5.72;;;2.80;;
48526;SDS011;34317;51.660;5.824;2024-01-10T04:31:38;5.88;;;3.03;;
48526;SDS011;34317;51.660;5.824;2024-01-10T04:34:06;7.80;;;2.75;;
48526;SDS011;34317;51.660;5.824;2024-01-10T04:36:33;6.55;;;2.88;;
48526;SDS011;34317;51.660;5.824;2024-01-10T04:39:01;7.32;;;3.60;;
48526;SDS011;34317;51.660;5.824;2024-01-10T04:41:28;7.25;;;3.00;;
48526;SDS011;34317;51.660;5.824;2024-01-10T04:43:55;5.60;;;2.88;;
48526;SDS011;34317;51.660;5.824;2024-01-10T04:46:22;6.45;;;3.65;;
48526;SDS011;34317;51.660;5.824;2024-01-10T04:48:49;6.57;;;2.72;;
48526;SDS011;34317;51.660;5.824;2024-01-10T04:51:17;6.97;;;3.53;;
48526;SDS011;34317;51.660;5.824;2024-01-10T04:53:44;8.10;;;3.22;;
48526;SDS011;34317;51.660;5.824;2024-01-10T04:56:11;7.22;;;3.13;;
48526;SDS011;34317;51.660;5.824;2024-01-10T04:58:38;6.10;;;2.80;;
48526;SDS011;34317;51.660;5.824;2024-01-10T05:01:05;6.75;;;3.38;;
48526;SDS011;34317;51.660;5.824;2024-01-10T05:03:32;8.73;;;3.30;;
48526;SDS011;34317;51.660;5.824;2024-01-10T05:06:00;6.63;;;3.13;;
48526;SDS011;34317;51.660;5.824;2024-01-10T05:08:27;6.60;;;3.03;;
48526;SDS011;34317;51.660;5.824;2024-01-10T05:10:54;8.23;;;3.50;;
48526;SDS011;34317;51.660;5.824;2024-01-10T05:13:22;5.75;;;2.78;;
48526;SDS011;34317;51.660;5.824;2024-01-10T05:15:49;9.43;;;3.55;;
48526;SDS011;34317;51.660;5.824;2024-01-10T05:18:16;6.85;;;3.00;;
48526;SDS011;34317;51.660;5.824;2024-01-10T05:20:44;7.18;;;3.08;;
48526;SDS011;34317;51.660;5.824;2024-01-10T05:23:11;7.57;;;3.05;;
48526;SDS011;34317;51.660;5.824;2024-01-10T05:25:38;5.47;;;3.00;;
48526;SDS011;34317;51.660;5.824;2024-01-10T05:28:06;6.28;;;2.95;;
48526;SDS011;34317;51.660;5.824;2024-01-10T05:30:33;6.85;;;2.90;;
48526;SDS011;34317;51.660;5.824;2024-01-10T05:33:00;8.75;;;3.22;;
48526;SDS011;34317;51.660;5.824;2024-01-10T05:35:28;6.28;;;2.92;;
48526;SDS011;34317;51.660;5.824;2024-01-10T05:37:55;9.68;;;3.25;;
48526;SDS011;34317;51.660;5.824;2024-01-10T05:40:23;4.47;;;2.55;;
48526;SDS011;34317;51.660;5.824;2024-01-10T05:42:50;7.88;;;3.08;;
48526;SDS011;34317;51.660;5.824;2024-01-10T05:45:17;5.90;;;2.97;;
48526;SDS011;34317;51.660;5.824;2024-01-10T05:47:45;6.00;;;2.55;;
48526;SDS011;34317;51.660;5.824;2024-01-10T05:50:12;7.68;;;2.95;;
48526;SDS011;34317;51.660;5.824;2024-01-10T05:52:40;7.50;;;3.15;;
48526;SDS011;34317;51.660;5.824;2024-01-10T05:55:07;7.18;;;3.38;;
48526;SDS011;34317;51.660;5.824;2024-01-10T05:57:36;8.75;;;3.55;;
48526;SDS011;34317;51.660;5.824;2024-01-10T06:00:04;6.70;;;2.97;;
48526;SDS011;34317;51.660;5.824;2024-01-10T06:02:36;9.07;;;3.85;;
48526;SDS011;34317;51.660;5.824;2024-01-10T06:05:06;6.20;;;3.28;;
48526;SDS011;34317;51.660;5.824;2024-01-10T06:07:37;8.00;;;3.03;;
48526;SDS011;34317;51.660;5.824;2024-01-10T06:10:05;6.93;;;3.05;;
48526;SDS011;34317;51.660;5.824;2024-01-10T06:12:33;7.60;;;3.28;;
48526;SDS011;34317;51.660;5.824;2024-01-10T06:15:00;7.47;;;3.13;;
48526;SDS011;34317;51.660;5.824;2024-01-10T06:17:27;7.63;;;3.25;;
48526;SDS011;34317;51.660;5.824;2024-01-10T06:19:54;6.72;;;3.08;;
48526;SDS011;34317;51.660;5.824;2024-01-10T06:22:21;8.40;;;3.50;;
48526;SDS011;34317;51.660;5.824;2024-01-10T06:24:55;8.98;;;3.65;;
48526;SDS011;34317;51.660;5.824;2024-01-10T06:27:22;7.45;;;3.40;;
48526;SDS011;34317;51.660;5.824;2024-01-10T06:29:50;7.53;;;2.92;;
48526;SDS011;34317;51.660;5.824;2024-01-10T06:32:17;7.95;;;3.25;;
48526;SDS011;34317;51.660;5.824;2024-01-10T06:34:45;8.77;;;3.72;;
48526;SDS011;34317;51.660;5.824;2024-01-10T06:37:12;9.82;;;3.70;;
48526;SDS011;34317;51.660;5.824;2024-01-10T06:39:39;7.38;;;3.00;;
48526;SDS011;34317;51.660;5.824;2024-01-10T06:42:08;7.47;;;3.20;;
48526;SDS011;34317;51.660;5.824;2024-01-10T06:44:38;8.25;;;3.60;;
48526;SDS011;34317;51.660;5.824;2024-01-10T06:47:05;8.02;;;3.78;;
48526;SDS011;34317;51.660;5.824;2024-01-10T06:49:32;8.05;;;3.25;;
48526;SDS011;34317;51.660;5.824;2024-01-10T06:52:00;8.00;;;3.55;;
48526;SDS011;34317;51.660;5.824;2024-01-10T06:54:27;7.85;;;3.25;;
48526;SDS011;34317;51.660;5.824;2024-01-10T06:56:54;7.90;;;4.07;;
48526;SDS011;34317;51.660;5.824;2024-01-10T06:59:21;8.27;;;3.80;;
48526;SDS011;34317;51.660;5.824;2024-01-10T07:01:52;10.38;;;4.18;;
48526;SDS011;34317;51.660;5.824;2024-01-10T07:04:20;8.50;;;3.75;;
48526;SDS011;34317;51.660;5.824;2024-01-10T07:06:51;9.88;;;3.83;;
48526;SDS011;34317;51.660;5.824;2024-01-10T07:09:18;9.57;;;3.95;;
48526;SDS011;34317;51.660;5.824;2024-01-10T07:11:47;5.70;;;3.00;;
48526;SDS011;34317;51.660;5.824;2024-01-10T07:14:15;9.18;;;3.95;;
48526;SDS011;34317;51.660;5.824;2024-01-10T07:16:42;12.60;;;3.58;;
48526;SDS011;34317;51.660;5.824;2024-01-10T07:19:13;6.53;;;3.70;;
48526;SDS011;34317;51.660;5.824;2024-01-10T07:21:41;7.38;;;3.25;;
48526;SDS011;34317;51.660;5.824;2024-01-10T07:24:09;9.00;;;4.28;;
48526;SDS011;34317;51.660;5.824;2024-01-10T07:26:37;9.43;;;3.85;;
48526;SDS011;34317;51.660;5.824;2024-01-10T07:29:05;7.03;;;3.50;;
48526;SDS011;34317;51.660;5.824;2024-01-10T07:31:35;8.65;;;4.22;;
48526;SDS011;34317;51.660;5.824;2024-01-10T07:34:02;8.25;;;3.95;;
48526;SDS011;34317;51.660;5.824;2024-01-10T07:36:33;10.77;;;4.30;;
48526;SDS011;34317;51.660;5.824;2024-01-10T07:39:07;10.02;;;4.00;;
48526;SDS011;34317;51.660;5.824;2024-01-10T07:41:35;8.10;;;3.85;;
48526;SDS011;34317;51.660;5.824;2024-01-10T07:44:02;8.48;;;3.67;;
48526;SDS011;34317;51.660;5.824;2024-01-10T07:46:30;10.65;;;4.38;;
48526;SDS011;34317;51.660;5.824;2024-01-10T07:48:57;9.02;;;4.28;;
48526;SDS011;34317;51.660;5.824;2024-01-10T07:51:24;9.98;;;3.70;;
48526;SDS011;34317;51.660;5.824;2024-01-10T07:53:51;10.07;;;4.28;;
48526;SDS011;34317;51.660;5.824;2024-01-10T07:56:18;9.50;;;4.13;;
48526;SDS011;34317;51.660;5.824;2024-01-10T07:58:47;7.53;;;3.58;;
48526;SDS011;34317;51.660;5.824;2024-01-10T08:01:15;7.72;;;3.80;;
48526;SDS011;34317;51.660;5.824;2024-01-10T08:03:42;7.82;;;3.90;;
48526;SDS011;34317;51.660;5.824;2024-01-10T08:06:09;10.55;;;3.80;;
48526;SDS011;34317;51.660;5.824;2024-01-10T08:08:52;7.97;;;4.20;;
48526;SDS011;34317;51.660;5.824;2024-01-10T08:11:19;9.85;;;4.65;;
48526;SDS011;34317;51.660;5.824;2024-01-10T08:13:47;7.03;;;3.53;;
48526;SDS011;34317;51.660;5.824;2024-01-10T08:16:14;9.68;;;3.80;;
48526;SDS011;34317;51.660;5.824;2024-01-10T08:18:41;11.50;;;4.07;;
48526;SDS011;34317;51.660;5.824;2024-01-10T08:21:09;8.07;;;4.18;;
48526;SDS011;34317;51.660;5.824;2024-01-10T08:23:36;11.20;;;4.45;;
48526;SDS011;34317;51.660;5.824;2024-01-10T08:26:06;8.45;;;4.45;;
48526;SDS011;34317;51.660;5.824;2024-01-10T08:28:35;10.38;;;4.30;;
48526;SDS011;34317;51.660;5.824;2024-01-10T08:31:02;10.02;;;4.38;;
48526;SDS011;34317;51.660;5.824;2024-01-10T08:33:31;11.35;;;3.90;;
48526;SDS011;34317;51.660;5.824;2024-01-10T08:35:59;9.32;;;3.83;;
48526;SDS011;34317;51.660;5.824;2024-01-10T08:38:26;14.05;;;4.95;;
48526;SDS011;34317;51.660;5.824;2024-01-10T08:40:54;8.02;;;4.00;;
48526;SDS011;34317;51.660;5.824;2024-01-10T08:43:21;11.55;;;4.88;;
48526;SDS011;34317;51.660;5.824;2024-01-10T08:45:48;11.95;;;4.57;;
48526;SDS011;34317;51.660;5.824;2024-01-10T08:48:15;10.88;;;4.47;;
48526;SDS011;34317;51.660;5.824;2024-01-10T08:50:43;11.73;;;4.47;;
48526;SDS011;34317;51.660;5.824;2024-01-10T08:53:11;11.93;;;4.70;;
48526;SDS011;34317;51.660;5.824;2024-01-10T08:55:38;11.75;;;4.72;;
48526;SDS011;34317;51.660;5.824;2024-01-10T08:58:05;12.25;;;4.78;;
48526;SDS011;34317;51.660;5.824;2024-01-10T09:00:33;12.65;;;4.88;;
48526;SDS011;34317;51.660;5.824;2024-01-10T09:03:01;12.57;;;5.40;;
48526;SDS011;34317;51.660;5.824;2024-01-10T09:05:29;14.27;;;4.53;;
48526;SDS011;34317;51.660;5.824;2024-01-10T09:07:56;11.20;;;5.10;;
48526;SDS011;34317;51.660;5.824;2024-01-10T09:10:24;9.60;;;4.90;;
48526;SDS011;34317;51.660;5.824;2024-01-10T09:12:55;13.00;;;5.82;;
48526;SDS011;34317;51.660;5.824;2024-01-10T09:15:22;11.40;;;5.43;;
48526;SDS011;34317;51.660;5.824;2024-01-10T09:17:49;10.90;;;4.90;;
48526;SDS011;34317;51.660;5.824;2024-01-10T09:20:19;9.65;;;4.70;;
48526;SDS011;34317;51.660;5.824;2024-01-10T09:22:47;9.55;;;4.30;;
48526;SDS011;34317;51.660;5.824;2024-01-10T09:25:16;12.10;;;5.32;;
48526;SDS011;34317;51.660;5.824;2024-01-10T09:27:44;10.57;;;4.90;;
48526;SDS011;34317;51.660;5.824;2024-01-10T09:30:12;11.73;;;5.13;;
48526;SDS011;34317;51.660;5.824;2024-01-10T09:32:40;12.00;;;5.05;;
48526;SDS011;34317;51.660;5.824;2024-01-10T09:35:07;10.43;;;5.05;;
48526;SDS011;34317;51.660;5.824;2024-01-10T09:37:35;11.52;;;5.60;;
48526;SDS011;34317;51.660;5.824;2024-01-10T09:40:02;13.05;;;5.50;;
48526;SDS011;34317;51.660;5.824;2024-01-10T09:42:30;13.23;;;5.63;;
48526;SDS011;34317;51.660;5.824;2024-01-10T09:45:01;14.85;;;5.20;;
48526;SDS011;34317;51.660;5.824;2024-01-10T09:47:31;12.00;;;4.72;;
48526;SDS011;34317;51.660;5.824;2024-01-10T09:49:59;13.93;;;4.88;;
48526;SDS011;34317;51.660;5.824;2024-01-10T09:52:29;11.35;;;5.15;;
48526;SDS011;34317;51.660;5.824;2024-01-10T09:55:04;14.10;;;5.68;;
48526;SDS011;34317;51.660;5.824;2024-01-10T09:57:32;12.65;;;5.63;;
48526;SDS011;34317;51.660;5.824;2024-01-10T10:00:01;14.60;;;5.70;;
48526;SDS011;34317;51.660;5.824;2024-01-10T10:02:32;13.93;;;5.28;;
48526;SDS011;34317;51.660;5.824;2024-01-10T10:05:04;10.32;;;5.05;;
48526;SDS011;34317;51.660;5.824;2024-01-10T10:07:43;14.35;;;5.53;;
48526;SDS011;34317;51.660;5.824;2024-01-10T10:10:17;16.05;;;6.47;;
48526;SDS011;34317;51.660;5.824;2024-01-10T10:12:48;11.20;;;5.13;;
48526;SDS011;34317;51.660;5.824;2024-01-10T10:15:19;11.43;;;5.22;;
48526;SDS011;34317;51.660;5.824;2024-01-10T10:17:49;14.05;;;5.38;;
48526;SDS011;34317;51.660;5.824;2024-01-10T10:25:34;10.55;;;5.10;;
48526;SDS011;34317;51.660;5.824;2024-01-10T10:28:03;16.48;;;5.97;;
48526;SDS011;34317;51.660;5.824;2024-01-10T10:30:32;13.07;;;5.57;;
48526;SDS011;34317;51.660;5.824;2024-01-10T10:33:01;12.18;;;5.97;;
48526;SDS011;34317;51.660;5.824;2024-01-10T10:35:29;13.57;;;5.85;;
48526;SDS011;34317;51.660;5.824;2024-01-10T10:38:07;17.63;;;6.22;;
48526;SDS011;34317;51.660;5.824;2024-01-10T10:40:36;12.45;;;5.10;;
48526;SDS011;34317;51.660;5.824;2024-01-10T10:43:03;13.23;;;6.32;;
48526;SDS011;34317;51.660;5.824;2024-01-10T10:45:31;14.10;;;5.78;;
48526;SDS011;34317;51.660;5.824;2024-01-10T10:48:00;15.48;;;5.97;;
48526;SDS011;34317;51.660;5.824;2024-01-10T10:50:35;15.27;;;6.07;;
48526;SDS011;34317;51.660;5.824;2024-01-10T10:53:03;12.93;;;6.13;;
48526;SDS011;34317;51.660;5.824;2024-01-10T10:55:31;14.10;;;6.18;;
48526;SDS011;34317;51.660;5.824;2024-01-10T10:58:01;15.23;;;6.40;;
48526;SDS011;34317;51.660;5.824;2024-01-10T11:00:38;16.50;;;6.32;;
48526;SDS011;34317;51.660;5.824;2024-01-10T11:03:07;14.25;;;5.85;;
48526;SDS011;34317;51.660;5.824;2024-01-10T11:05:40;15.52;;;6.78;;
48526;SDS011;34317;51.660;5.824;2024-01-10T11:08:12;14.35;;;6.45;;
48526;SDS011;34317;51.660;5.824;2024-01-10T11:10:41;13.57;;;6.25;;
48526;SDS011;34317;51.660;5.824;2024-01-10T11:13:26;15.27;;;7.13;;
48526;SDS011;34317;51.660;5.824;2024-01-10T11:24:53;13.65;;;6.68;;
48526;SDS011;34317;51.660;5.824;2024-01-10T11:27:21;14.43;;;6.57;;
48526;SDS011;34317;51.660;5.824;2024-01-10T11:29:48;15.20;;;5.93;;
48526;SDS011;34317;51.660;5.824;2024-01-10T11:32:16;13.95;;;6.28;;
48526;SDS011;34317;51.660;5.824;2024-01-10T11:37:20;14.27;;;5.82;;
48526;SDS011;34317;51.660;5.824;2024-01-10T11:39:48;13.32;;;5.90;;
48526;SDS011;34317;51.660;5.824;2024-01-10T11:42:21;12.35;;;5.75;;
48526;SDS011;34317;51.660;5.824;2024-01-10T11:44:50;14.38;;;6.18;;
48526;SDS011;34317;51.660;5.824;2024-01-10T11:47:19;12.13;;;5.97;;
48526;SDS011;34317;51.660;5.824;2024-01-10T11:49:53;12.88;;;6.20;;
48526;SDS011;34317;51.660;5.824;2024-01-10T11:52:22;13.43;;;6.70;;
48526;SDS011;34317;51.660;5.824;2024-01-10T11:54:51;17.65;;;7.03;;
48526;SDS011;34317;51.660;5.824;2024-01-10T11:57:21;11.90;;;6.22;;
48526;SDS011;34317;51.660;5.824;2024-01-10T11:59:53;13.65;;;6.47;;
48526;SDS011;34317;51.660;5.824;2024-01-10T12:02:22;14.77;;;7.05;;
48526;SDS011;34317;51.660;5.824;2024-01-10T12:04:52;12.77;;;6.40;;
48526;SDS011;34317;51.660;5.824;2024-01-10T12:07:20;15.82;;;6.60;;
48526;SDS011;34317;51.660;5.824;2024-01-10T12:09:48;14.57;;;6.95;;
48526;SDS011;34317;51.660;5.824;2024-01-10T12:12:15;15.25;;;7.05;;
48526;SDS011;34317;51.660;5.824;2024-01-10T12:14:43;16.60;;;7.00;;
48526;SDS011;34317;51.660;5.824;2024-01-10T12:17:11;17.25;;;6.97;;
48526;SDS011;34317;51.660;5.824;2024-01-10T12:19:38;16.50;;;6.75;;
48526;SDS011;34317;51.660;5.824;2024-01-10T12:22:05;15.02;;;6.50;;
48526;SDS011;34317;51.660;5.824;2024-01-10T12:24:38;14.77;;;6.63;;
48526;SDS011;34317;51.660;5.824;2024-01-10T12:27:10;15.38;;;6.30;;
48526;SDS011;34317;51.660;5.824;2024-01-10T12:29:38;14.10;;;6.45;;
48526;SDS011;34317;51.660;5.824;2024-01-10T12:32:05;16.55;;;6.55;;
48526;SDS011;34317;51.660;5.824;2024-01-10T12:34:39;13.50;;;6.57;;
48526;SDS011;34317;51.660;5.824;2024-01-10T12:37:07;14.75;;;6.53;;
48526;SDS011;34317;51.660;5.824;2024-01-10T12:39:34;14.13;;;6.70;;
48526;SDS011;34317;51.660;5.824;2024-01-10T12:42:02;13.30;;;6.35;;
48526;SDS011;34317;51.660;5.824;2024-01-10T12:44:30;16.58;;;6.93;;
48526;SDS011;34317;51.660;5.824;2024-01-10T12:46:57;14.95;;;6.22;;
48526;SDS011;34317;51.660;5.824;2024-01-10T12:49:27;13.90;;;6.60;;
48526;SDS011;34317;51.660;5.824;2024-01-10T12:51:54;15.35;;;6.40;;
48526;SDS011;34317;51.660;5.824;2024-01-10T12:54:21;14.80;;;6.70;;
48526;SDS011;34317;51.660;5.824;2024-01-10T12:56:49;15.70;;;6.82;;
48526;SDS011;34317;51.660;5.824;2024-01-10T12:59:17;15.00;;;7.07;;
48526;SDS011;34317;51.660;5.824;2024-01-10T13:01:44;14.07;;;6.43;;
48526;SDS011;34317;51.660;5.824;2024-01-10T13:04:12;14.43;;;6.97;;
48526;SDS011;34317;51.660;5.824;2024-01-10T13:06:39;15.60;;;7.35;;
48526;SDS011;34317;51.660;5.824;2024-01-10T13:09:07;15.52;;;6.63;;
48526;SDS011;34317;51.660;5.824;2024-01-10T13:11:36;17.17;;;7.00;;
48526;SDS011;34317;51.660;5.824;2024-01-10T13:14:04;15.18;;;6.65;;
48526;SDS011;34317;51.660;5.824;2024-01-10T13:16:31;17.60;;;6.20;;
48526;SDS011;34317;51.660;5.824;2024-01-10T13:19:12;16.70;;;6.38;;
48526;SDS011;34317;51.660;5.824;2024-01-10T13:21:41;14.27;;;6.05;;
48526;SDS011;34317;51.660;5.824;2024-01-10T13:24:08;14.27;;;6.47;;
48526;SDS011;34317;51.660;5.824;2024-01-10T13:26:36;16.90;;;7.60;;
48526;SDS011;34317;51.660;5.824;2024-01-10T13:29:03;16.42;;;7.38;;
48526;SDS011;34317;51.660;5.824;2024-01-10T13:31:30;15.18;;;6.68;;
48526;SDS011;34317;51.660;5.824;2024-01-10T13:33:57;14.55;;;6.50;;
48526;SDS011;34317;51.660;5.824;2024-01-10T13:36:25;16.35;;;6.82;;
48526;SDS011;34317;51.660;5.824;2024-01-10T13:38:52;14.05;;;6.65;;
48526;SDS011;34317;51.660;5.824;2024-01-10T13:41:19;12.50;;;6.78;;
48526;SDS011;34317;51.660;5.824;2024-01-10T13:43:46;18.00;;;7.13;;
48526;SDS011;34317;51.660;5.824;2024-01-10T13:46:13;14.05;;;6.20;;
48526;SDS011;34317;51.660;5.824;2024-01-10T13:48:40;14.93;;;6.40;;
48526;SDS011;34317;51.660;5.824;2024-01-10T13:51:08;14.52;;;7.03;;
48526;SDS011;34317;51.660;5.824;2024-01-10T13:53:36;16.38;;;6.82;;
48526;SDS011;34317;51.660;5.824;2024-01-10T13:56:04;14.77;;;6.47;;
48526;SDS011;34317;51.660;5.824;2024-01-10T13:58:31;15.10;;;7.47;;
48526;SDS011;34317;51.660;5.824;2024-01-10T14:00:59;13.63;;;6.80;;
48526;SDS011;34317;51.660;5.824;2024-01-10T14:03:26;13.00;;;6.07;;
48526;SDS011;34317;51.660;5.824;2024-01-10T14:05:57;15.65;;;6.63;;
48526;SDS011;34317;51.660;5.824;2024-01-10T14:08:25;14.43;;;6.72;;
48526;SDS011;34317;51.660;5.824;2024-01-10T14:10:52;13.90;;;5.88;;
48526;SDS011;34317;51.660;5.824;2024-01-10T14:13:20;15.60;;;6.53;;
48526;SDS011;34317;51.660;5.824;2024-01-10T14:15:50;15.68;;;6.32;;
48526;SDS011;34317;51.660;5.824;2024-01-10T14:18:17;17.90;;;6.50;;
48526;SDS011;34317;51.660;5.824;2024-01-10T14:20:44;14.00;;;5.82;;
48526;SDS011;34317;51.660;5.824;2024-01-10T14:23:11;15.73;;;6.15;;
48526;SDS011;34317;51.660;5.824;2024-01-10T14:25:38;12.57;;;6.13;;
48526;SDS011;34317;51.660;5.824;2024-01-10T14:28:05;15.65;;;6.05;;
48526;SDS011;34317;51.660;5.824;2024-01-10T14:30:33;13.82;;;6.30;;
48526;SDS011;34317;51.660;5.824;2024-01-10T14:33:00;14.50;;;6.22;;
48526;SDS011;34317;51.660;5.824;2024-01-10T14:35:27;13.23;;;6.28;;
48526;SDS011;34317;51.660;5.824;2024-01-10T14:37:55;12.48;;;6.10;;
48526;SDS011;34317;51.660;5.824;2024-01-10T14:40:22;12.75;;;6.40;;
48526;SDS011;34317;51.660;5.824;2024-01-10T14:42:50;12.70;;;5.97;;
48526;SDS011;34317;51.660;5.824;2024-01-10T14:45:18;16.85;;;6.82;;
48526;SDS011;34317;51.660;5.824;2024-01-10T14:47:47;15.80;;;6.35;;
48526;SDS011;34317;51.660;5.824;2024-01-10T14:50:16;16.02;;;6.32;;
48526;SDS011;34317;51.660;5.824;2024-01-10T14:52:43;14.32;;;6.35;;
48526;SDS011;34317;51.660;5.824;2024-01-10T14:55:11;13.57;;;6.30;;
48526;SDS011;34317;51.660;5.824;2024-01-10T14:57:38;15.52;;;6.50;;
48526;SDS011;34317;51.660;5.824;2024-01-10T15:00:05;14.23;;;6.57;;
48526;SDS011;34317;51.660;5.824;2024-01-10T15:02:33;14.30;;;7.10;;